Time;durP1;ratioP1;P1;durP2;ratioP2;P2;SDS_P1;SDS_P2;PMS_P1;PMS_P2;Temp;Humidity;BMP_temperature;BMP_pressure;BME280_temperature;BME280_humidity;BME280_pressure;Samples;Min_cycle;Max_cycle;Signal;HPM_P1;HPM_P2
2023/05/09 00:02:23;;;;;;;31.95;21.30;;;14.60;99.90;;;;;;4990557;28;20030;-73
2023/05/09 00:04:50;;;;;;;32.90;22.42;;;14.60;99.90;;;;;;4985393;28;20054;-73
2023/05/09 00:07:16;;;;;;;35.70;22.58;;;14.60;99.90;;;;;;4984276;28;20038;-72
2023/05/09 00:09:41;;;;;;;35.67;20.50;;;14.50;99.90;;;;;;4979521;28;20567;-74
2023/05/09 00:12:08;;;;;;;32.88;21.67;;;14.50;99.90;;;;;;4988060;28;20023;-74
2023/05/09 00:14:33;;;;;;;39.85;22.75;;;14.50;99.90;;;;;;4982054;28;20018;-75
2023/05/09 00:16:59;;;;;;;32.20;21.35;;;14.50;99.90;;;;;;5002628;28;20673;-72
2023/05/09 00:19:25;;;;;;;32.78;19.88;;;14.40;99.90;;;;;;4990420;28;20064;-73
2023/05/09 00:21:50;;;;;;;30.27;20.30;;;14.40;99.90;;;;;;4989622;28;20318;-74
2023/05/09 00:24:16;;;;;;;34.53;21.88;;;14.40;99.90;;;;;;4989431;28;20118;-74
2023/05/09 00:26:42;;;;;;;33.03;21.38;;;14.40;99.90;;;;;;4986646;28;20054;-73
2023/05/09 00:29:07;;;;;;;37.83;22.70;;;14.40;99.90;;;;;;4989600;28;20482;-73
2023/05/09 00:31:42;;;;;;;32.80;21.55;;;14.40;99.90;;;;;;4990898;28;20026;-74
2023/05/09 00:34:07;;;;;;;33.20;21.13;;;14.40;99.90;;;;;;4986524;28;20413;-73
2023/05/09 00:36:33;;;;;;;36.40;22.88;;;14.40;99.90;;;;;;4987256;28;20061;-73
2023/05/09 00:39:01;;;;;;;41.88;22.83;;;14.40;99.90;;;;;;4986022;28;20030;-74
2023/05/09 00:41:26;;;;;;;35.17;22.38;;;14.40;99.90;;;;;;4989635;28;20053;-74
2023/05/09 00:43:52;;;;;;;37.97;22.50;;;14.30;99.90;;;;;;4984499;28;20030;-73
2023/05/09 00:46:17;;;;;;;35.63;22.23;;;14.40;99.90;;;;;;4984316;28;20039;-74
2023/05/09 00:48:44;;;;;;;35.88;22.67;;;14.30;99.90;;;;;;4989873;28;20141;-74
2023/05/09 00:51:10;;;;;;;35.47;23.20;;;14.30;99.90;;;;;;4984673;28;20031;-72
2023/05/09 00:53:35;;;;;;;33.95;21.08;;;14.30;99.90;;;;;;4984148;28;20367;-74
2023/05/09 00:56:01;;;;;;;34.78;21.73;;;14.30;99.90;;;;;;4987967;28;20062;-73
2023/05/09 00:58:30;;;;;;;39.28;23.52;;;14.30;99.90;;;;;;4986948;28;20031;-73
2023/05/09 01:00:55;;;;;;;35.20;21.52;;;14.20;99.90;;;;;;4986382;28;20485;-73
2023/05/09 01:03:21;;;;;;;33.95;21.67;;;14.30;99.90;;;;;;4985337;28;20030;-74
2023/05/09 01:05:53;;;;;;;36.67;22.35;;;14.20;99.90;;;;;;4988164;28;20026;-74
2023/05/09 01:08:31;;;;;;;34.33;19.92;;;14.10;99.90;;;;;;4987987;28;20357;-74
2023/05/09 01:11:25;;;;;;;33.35;22.45;;;14.10;99.90;;;;;;4988472;28;20076;-74
2023/05/09 01:14:07;;;;;;;;;;;14.10;99.90;;;;;;4987063;28;20084;-74
2023/05/09 01:16:40;;;;;;;29.30;19.23;;;14.10;99.90;;;;;;4987125;28;19918;-74
2023/05/09 01:19:36;;;;;;;31.30;19.55;;;14.10;99.90;;;;;;4986208;28;20026;-74
2023/05/09 01:22:06;;;;;;;27.23;18.27;;;14.00;99.90;;;;;;4987730;28;20049;-74
2023/05/09 01:24:56;;;;;;;27.80;18.33;;;14.00;99.90;;;;;;4995700;28;20190;-73
2023/05/09 01:27:43;;;;;;;34.22;19.40;;;14.00;99.90;;;;;;4989569;28;20030;-73
2023/05/09 01:30:12;;;;;;;31.20;18.02;;;14.00;99.90;;;;;;5003669;23;20054;-75
2023/05/09 01:32:43;;;;;;;29.27;19.45;;;13.90;99.90;;;;;;4993938;28;20034;-75
2023/05/09 01:35:14;;;;;;;30.20;18.52;;;13.90;99.90;;;;;;4991002;28;20014;-76
2023/05/09 01:37:42;;;;;;;28.00;17.67;;;13.90;99.90;;;;;;4989671;28;20394;-75
2023/05/09 01:40:20;;;;;;;31.10;19.30;;;13.90;99.90;;;;;;4968772;28;20497;-75
2023/05/09 01:43:02;;;;;;;28.08;18.17;;;13.90;99.90;;;;;;4971826;28;20444;-76
2023/05/09 01:45:35;;;;;;;31.27;20.00;;;13.80;99.90;;;;;;4968437;28;20085;-76
2023/05/09 01:48:02;;;;;;;30.70;19.05;;;13.80;99.90;;;;;;4970238;28;20377;-76
2023/05/09 01:50:32;;;;;;;35.08;20.63;;;13.80;99.90;;;;;;4967772;28;20119;-76
2023/05/09 01:53:00;;;;;;;35.03;19.90;;;13.80;99.90;;;;;;4974264;28;20103;-76
2023/05/09 01:55:27;;;;;;;35.08;20.80;;;13.80;99.90;;;;;;4967331;28;20038;-76
2023/05/09 01:57:55;;;;;;;36.20;22.98;;;13.80;99.90;;;;;;4975334;28;20394;-76
2023/05/09 02:00:22;;;;;;;34.85;22.80;;;13.80;99.90;;;;;;4972202;28;20035;-75
2023/05/09 02:02:51;;;;;;;36.85;22.33;;;13.80;99.90;;;;;;4973912;28;20041;-76
2023/05/09 02:05:18;;;;;;;38.33;23.20;;;13.80;99.90;;;;;;4971400;28;20059;-76
2023/05/09 02:07:46;;;;;;;39.90;23.98;;;13.80;99.90;;;;;;4974157;28;20027;-75
2023/05/09 02:10:14;;;;;;;38.17;23.63;;;13.80;99.90;;;;;;4971365;28;20051;-76
2023/05/09 02:12:40;;;;;;;38.85;24.85;;;13.80;99.90;;;;;;4973795;28;20030;-76
2023/05/09 02:15:06;;;;;;;38.13;23.50;;;13.80;99.90;;;;;;4974109;28;20429;-76
2023/05/09 02:17:32;;;;;;;39.67;24.65;;;13.80;99.90;;;;;;4973552;28;20019;-75
2023/05/09 02:19:57;;;;;;;39.90;23.42;;;13.80;99.90;;;;;;4971927;28;20026;-76
2023/05/09 02:22:26;;;;;;;39.60;23.05;;;13.80;99.90;;;;;;4975279;28;20482;-76
2023/05/09 02:24:52;;;;;;;40.90;23.98;;;13.80;99.90;;;;;;4972413;28;20026;-76
2023/05/09 02:27:19;;;;;;;38.47;23.00;;;13.70;99.90;;;;;;4971121;28;20030;-76
2023/05/09 02:29:48;;;;;;;35.72;23.88;;;13.70;99.90;;;;;;4970624;28;20486;-76
2023/05/09 02:32:17;;;;;;;36.15;22.50;;;13.70;99.90;;;;;;4974249;28;20033;-76
2023/05/09 02:34:45;;;;;;;37.28;21.60;;;13.70;99.90;;;;;;4968523;28;20540;-77
2023/05/09 02:37:14;;;;;;;42.33;22.35;;;13.70;99.90;;;;;;4969584;28;20026;-76
2023/05/09 02:39:40;;;;;;;38.53;21.73;;;13.70;99.90;;;;;;4971703;28;20023;-76
2023/05/09 02:42:08;;;;;;;33.38;21.15;;;13.70;99.90;;;;;;4976817;28;20045;-76
2023/05/09 02:44:35;;;;;;;33.17;20.08;;;13.70;99.90;;;;;;4972194;28;20027;-76
2023/05/09 02:47:01;;;;;;;33.25;19.50;;;13.70;99.90;;;;;;4970489;28;20031;-76
2023/05/09 02:49:27;;;;;;;40.83;21.67;;;13.60;99.90;;;;;;4969702;28;20129;-77
2023/05/09 02:51:53;;;;;;;35.63;21.70;;;13.60;99.90;;;;;;4964745;28;20022;-77
2023/05/09 02:54:18;;;;;;;34.00;21.00;;;13.60;99.90;;;;;;4971809;28;20022;-76
2023/05/09 02:56:44;;;;;;;43.05;22.50;;;13.60;99.90;;;;;;4967770;28;20039;-76
2023/05/09 02:59:09;;;;;;;33.95;19.90;;;13.60;99.90;;;;;;4969628;28;20081;-77
2023/05/09 03:01:35;;;;;;;40.80;22.85;;;13.60;99.90;;;;;;4971312;28;20027;-76
2023/05/09 03:04:01;;;;;;;35.60;22.48;;;13.50;99.90;;;;;;4973316;28;20035;-76
2023/05/09 03:06:26;;;;;;;36.47;22.45;;;13.50;99.90;;;;;;4970037;28;20027;-77
2023/05/09 03:08:52;;;;;;;37.10;22.45;;;13.50;99.90;;;;;;4969231;28;20441;-76
2023/05/09 03:11:18;;;;;;;40.88;23.88;;;13.50;99.90;;;;;;4971485;28;20145;-77
2023/05/09 03:13:43;;;;;;;42.58;24.80;;;13.50;99.90;;;;;;4966517;28;20541;-76
2023/05/09 03:16:13;;;;;;;43.67;25.70;;;13.50;99.90;;;;;;4971448;28;20105;-76
2023/05/09 03:18:42;;;;;;;43.33;25.67;;;13.50;99.90;;;;;;4971126;28;20089;-76
2023/05/09 03:21:11;;;;;;;46.17;26.60;;;13.50;99.90;;;;;;4972122;28;20046;-76
2023/05/09 03:23:37;;;;;;;43.67;25.02;;;13.50;99.90;;;;;;4973944;28;20078;-76
2023/05/09 03:26:12;;;;;;;39.28;24.58;;;13.50;99.90;;;;;;4972874;28;20381;-75
2023/05/09 03:28:38;;;;;;;41.45;24.73;;;13.50;99.90;;;;;;4966348;28;20074;-75
2023/05/09 03:31:04;;;;;;;37.90;23.13;;;13.50;99.90;;;;;;4969621;28;20051;-76
2023/05/09 03:33:30;;;;;;;38.22;23.45;;;13.50;99.90;;;;;;4967358;28;20485;-76
2023/05/09 03:35:55;;;;;;;43.25;24.02;;;13.50;99.90;;;;;;4969769;28;20026;-76
2023/05/09 03:38:23;;;;;;;39.85;23.80;;;13.50;99.90;;;;;;4969331;28;20485;-76
2023/05/09 03:40:49;;;;;;;39.95;24.33;;;13.50;99.90;;;;;;4969062;28;20401;-76
2023/05/09 03:43:15;;;;;;;41.17;24.75;;;13.40;99.90;;;;;;4972653;28;20061;-76
2023/05/09 03:45:41;;;;;;;42.65;24.80;;;13.40;99.90;;;;;;4968407;28;20031;-77
2023/05/09 03:48:08;;;;;;;43.72;25.95;;;13.40;99.90;;;;;;4981736;28;20035;-76
2023/05/09 03:50:34;;;;;;;44.25;25.00;;;13.40;99.90;;;;;;4972860;28;20054;-75
2023/05/09 03:53:00;;;;;;;42.40;24.40;;;13.40;99.90;;;;;;4967421;28;20466;-75
2023/05/09 03:55:26;;;;;;;38.97;23.70;;;13.40;99.90;;;;;;4966014;28;20025;-75
2023/05/09 03:57:52;;;;;;;40.67;23.88;;;13.40;99.90;;;;;;4962252;28;20359;-76
2023/05/09 04:00:21;;;;;;;41.63;24.20;;;13.30;99.90;;;;;;4965413;28;20536;-76
2023/05/09 04:02:47;;;;;;;37.20;21.50;;;13.30;99.90;;;;;;4964266;28;20386;-75
2023/05/09 04:05:14;;;;;;;33.78;20.35;;;13.30;99.90;;;;;;4968031;28;20061;-75
2023/05/09 04:07:40;;;;;;;34.20;21.17;;;13.30;99.90;;;;;;4968094;28;20027;-76
2023/05/09 04:10:07;;;;;;;30.48;18.00;;;13.30;99.90;;;;;;4968283;28;20116;-74
2023/05/09 04:12:32;;;;;;;32.60;19.83;;;13.30;99.90;;;;;;4972652;28;20030;-76
2023/05/09 04:15:01;;;;;;;29.10;18.55;;;13.30;99.90;;;;;;4967845;28;20543;-75
2023/05/09 04:17:30;;;;;;;26.85;16.80;;;13.30;99.90;;;;;;4969843;28;20026;-76
2023/05/09 04:19:55;;;;;;;31.73;17.58;;;13.30;99.90;;;;;;4972452;28;20050;-76
2023/05/09 04:22:24;;;;;;;28.67;18.35;;;13.30;99.90;;;;;;4970280;28;20039;-77
2023/05/09 04:24:50;;;;;;;28.65;16.58;;;13.20;99.90;;;;;;4988938;28;20036;-77
2023/05/09 04:27:15;;;;;;;30.23;17.80;;;13.20;99.90;;;;;;4972465;28;20046;-77
2023/05/09 04:29:41;;;;;;;35.58;16.60;;;13.20;99.90;;;;;;4967495;28;20039;-77
2023/05/09 04:32:07;;;;;;;28.42;17.35;;;13.20;99.90;;;;;;4972584;28;20043;-77
2023/05/09 04:34:32;;;;;;;27.00;17.40;;;13.20;99.90;;;;;;4967099;28;20034;-77
2023/05/09 04:37:01;;;;;;;28.45;17.50;;;13.20;99.90;;;;;;4969451;28;20030;-77
2023/05/09 04:39:27;;;;;;;45.20;17.88;;;13.20;99.90;;;;;;4962795;28;20027;-77
2023/05/09 04:41:52;;;;;;;25.35;17.27;;;13.20;99.90;;;;;;4968871;28;20105;-77
2023/05/09 04:44:18;;;;;;;32.75;18.20;;;13.20;99.90;;;;;;4968598;28;20023;-77
2023/05/09 04:46:44;;;;;;;33.45;18.00;;;13.20;99.90;;;;;;4967799;28;20046;-77
2023/05/09 04:49:09;;;;;;;29.02;16.67;;;13.20;99.90;;;;;;4966626;28;20042;-77
2023/05/09 04:51:35;;;;;;;33.42;14.70;;;13.20;99.90;;;;;;4970739;28;20105;-77
2023/05/09 04:54:00;;;;;;;22.05;14.75;;;13.20;99.90;;;;;;4974585;28;20545;-77
2023/05/09 04:56:26;;;;;;;18.52;12.02;;;13.20;99.90;;;;;;4974143;28;20060;-78
2023/05/09 04:58:52;;;;;;;19.40;11.82;;;13.20;99.90;;;;;;4975669;28;20021;-78
2023/05/09 05:01:17;;;;;;;16.70;10.85;;;13.20;99.90;;;;;;4971663;28;20037;-77
2023/05/09 05:03:44;;;;;;;21.80;10.90;;;13.20;99.90;;;;;;4971341;28;20034;-78
2023/05/09 05:06:16;;;;;;;15.15;10.07;;;13.20;99.90;;;;;;4970816;28;20022;-77
2023/05/09 05:08:42;;;;;;;16.27;11.10;;;13.20;99.90;;;;;;4970068;28;20098;-76
2023/05/09 05:11:08;;;;;;;16.83;12.10;;;13.30;99.90;;;;;;4969908;28;20024;-77
2023/05/09 05:13:33;;;;;;;14.90;10.93;;;13.30;99.90;;;;;;4973282;28;20034;-77
2023/05/09 05:15:59;;;;;;;14.98;10.85;;;13.30;99.90;;;;;;4973297;28;21452;-78
2023/05/09 05:18:28;;;;;;;16.77;11.73;;;13.40;99.90;;;;;;4972554;28;20085;-77
2023/05/09 05:21:01;;;;;;;17.33;11.82;;;13.40;99.90;;;;;;4977371;28;20034;-78
2023/05/09 05:23:35;;;;;;;13.93;9.68;;;13.40;99.90;;;;;;4975031;28;20157;-78
2023/05/09 05:26:01;;;;;;;14.27;10.15;;;13.40;99.90;;;;;;4970908;28;20031;-77
2023/05/09 05:28:26;;;;;;;15.25;10.40;;;13.50;99.90;;;;;;4973288;28;20033;-78
2023/05/09 05:30:52;;;;;;;20.35;12.02;;;13.50;99.90;;;;;;4969164;28;20031;-77
2023/05/09 05:33:20;;;;;;;16.52;11.95;;;13.50;99.90;;;;;;4975919;28;20069;-77
2023/05/09 05:35:46;;;;;;;20.58;12.77;;;13.50;99.90;;;;;;4972111;28;20037;-78
2023/05/09 05:38:12;;;;;;;22.98;13.57;;;13.60;99.90;;;;;;4973433;28;20019;-77
2023/05/09 05:40:37;;;;;;;22.45;14.63;;;13.60;99.90;;;;;;4971348;28;20042;-77
2023/05/09 05:43:03;;;;;;;23.98;15.57;;;13.60;99.90;;;;;;4975272;28;20517;-77
2023/05/09 05:45:29;;;;;;;21.80;13.98;;;13.70;99.90;;;;;;4964843;28;20030;-78
2023/05/09 05:48:07;;;;;;;21.20;14.60;;;13.80;99.90;;;;;;4973445;28;20556;-77
2023/05/09 05:50:36;;;;;;;21.98;15.20;;;13.90;99.90;;;;;;4975076;28;20550;-77
2023/05/09 05:53:02;;;;;;;24.73;15.80;;;14.00;99.90;;;;;;4973498;28;20031;-78
2023/05/09 05:55:30;;;;;;;23.85;15.93;;;14.00;99.90;;;;;;4986577;28;20023;-77
2023/05/09 05:57:58;;;;;;;25.30;15.57;;;14.20;99.90;;;;;;4972023;28;20544;-78
2023/05/09 06:00:27;;;;;;;26.20;16.42;;;14.20;99.90;;;;;;4974909;28;20812;-78
2023/05/09 06:03:02;;;;;;;25.23;17.02;;;14.30;99.90;;;;;;4973506;28;20026;-76
2023/05/09 06:05:31;;;;;;;28.25;17.83;;;14.50;99.90;;;;;;4966729;28;20049;-78
2023/05/09 06:07:56;;;;;;;31.48;19.80;;;14.60;99.90;;;;;;4978994;28;20023;-78
2023/05/09 06:10:22;;;;;;;34.90;21.55;;;14.80;99.90;;;;;;4973949;28;20041;-78
2023/05/09 06:12:47;;;;;;;34.25;21.73;;;14.90;99.90;;;;;;4976888;28;20026;-78
2023/05/09 06:15:16;;;;;;;31.88;19.55;;;15.10;99.90;;;;;;4971682;28;20038;-78
2023/05/09 06:17:42;;;;;;;31.40;19.27;;;15.30;99.90;;;;;;4974353;28;20522;-78
2023/05/09 06:20:11;;;;;;;27.63;17.88;;;15.40;99.90;;;;;;4971740;28;20022;-77
2023/05/09 06:22:37;;;;;;;29.52;19.70;;;15.50;99.90;;;;;;4960063;28;20071;-75
2023/05/09 06:25:02;;;;;;;30.65;20.58;;;15.60;99.90;;;;;;4964141;28;20023;-75
2023/05/09 06:27:28;;;;;;;30.73;19.90;;;15.70;99.90;;;;;;4969343;28;20445;-75
2023/05/09 06:29:54;;;;;;;30.77;19.52;;;15.80;99.90;;;;;;4970311;28;20038;-77
2023/05/09 06:32:25;;;;;;;27.88;17.85;;;15.90;99.90;;;;;;4969739;28;20038;-77
2023/05/09 06:34:51;;;;;;;31.25;19.63;;;16.00;99.90;;;;;;4981796;28;20102;-76
2023/05/09 06:37:19;;;;;;;30.42;19.02;;;16.10;99.90;;;;;;4975373;28;20101;-75
2023/05/09 06:39:45;;;;;;;30.90;19.95;;;16.20;99.90;;;;;;4968278;28;20037;-74
2023/05/09 06:42:10;;;;;;;29.73;18.67;;;16.30;99.90;;;;;;4963733;28;20026;-75
2023/05/09 06:44:36;;;;;;;27.73;17.13;;;16.30;99.90;;;;;;4967539;28;20023;-77
2023/05/09 06:47:04;;;;;;;25.05;16.58;;;16.40;99.90;;;;;;4972668;28;20038;-76
2023/05/09 06:49:30;;;;;;;27.88;17.90;;;16.40;99.90;;;;;;4975545;28;20481;-75
2023/05/09 06:51:56;;;;;;;26.65;18.23;;;16.50;99.90;;;;;;4971166;28;20023;-73
2023/05/09 06:54:24;;;;;;;24.80;16.23;;;16.50;99.90;;;;;;4976591;28;20043;-73
2023/05/09 06:56:50;;;;;;;26.42;17.08;;;16.60;99.90;;;;;;4969302;28;20110;-74
2023/05/09 06:59:16;;;;;;;28.17;16.90;;;16.60;99.90;;;;;;4983789;28;20026;-73
2023/05/09 07:01:41;;;;;;;26.13;16.85;;;16.70;99.90;;;;;;4968142;28;20062;-73
2023/05/09 07:04:10;;;;;;;27.70;16.13;;;16.80;99.90;;;;;;4968560;28;20031;-76
2023/05/09 07:06:39;;;;;;;22.23;15.52;;;16.80;99.90;;;;;;4967354;28;20046;-77
2023/05/09 07:09:04;;;;;;;24.55;16.95;;;16.80;99.90;;;;;;4966019;28;20057;-76
2023/05/09 07:11:39;;;;;;;22.70;15.80;;;16.80;99.90;;;;;;4972745;28;20579;-76
2023/05/09 07:14:11;;;;;;;26.52;15.95;;;16.80;99.90;;;;;;4967199;28;20029;-76
2023/05/09 07:16:39;;;;;;;22.02;15.35;;;16.80;99.90;;;;;;4968150;28;20034;-76
2023/05/09 07:19:05;;;;;;;23.50;14.75;;;16.80;99.90;;;;;;4970558;28;20090;-76
2023/05/09 07:21:33;;;;;;;22.30;13.82;;;16.80;99.90;;;;;;4970774;28;20113;-77
2023/05/09 07:23:58;;;;;;;21.48;14.10;;;16.80;99.90;;;;;;4975251;28;20033;-76
2023/05/09 07:26:27;;;;;;;20.70;14.43;;;16.70;99.90;;;;;;4967075;28;20030;-76
2023/05/09 07:28:53;;;;;;;24.65;14.82;;;16.70;99.90;;;;;;4988217;23;20534;-74
2023/05/09 07:31:18;;;;;;;21.92;14.43;;;16.70;99.90;;;;;;4997345;28;20022;-73
2023/05/09 07:33:44;;;;;;;24.33;15.93;;;16.70;99.90;;;;;;4995072;28;20027;-75
2023/05/09 07:36:15;;;;;;;26.83;17.40;;;16.70;99.90;;;;;;4992644;28;20033;-75
2023/05/09 07:38:40;;;;;;;24.20;16.13;;;16.70;99.90;;;;;;4983668;28;20448;-74
2023/05/09 07:41:06;;;;;;;21.92;15.43;;;16.70;99.90;;;;;;4989670;28;20019;-73
2023/05/09 07:43:32;;;;;;;20.35;13.77;;;16.70;99.90;;;;;;4992346;28;20096;-75
2023/05/09 07:45:57;;;;;;;21.52;13.88;;;16.70;99.90;;;;;;4991367;28;20030;-74
2023/05/09 07:48:23;;;;;;;21.77;14.02;;;16.70;99.90;;;;;;4989271;28;20440;-76
2023/05/09 07:50:49;;;;;;;21.25;14.77;;;16.80;99.90;;;;;;4985963;28;20033;-75
2023/05/09 07:53:14;;;;;;;24.92;15.02;;;16.70;99.90;;;;;;4986801;28;20070;-77
2023/05/09 07:55:40;;;;;;;21.92;14.63;;;16.80;99.90;;;;;;4991359;28;20018;-76
2023/05/09 07:58:06;;;;;;;21.42;14.18;;;16.80;99.90;;;;;;4991573;28;20030;-77
2023/05/09 08:00:37;;;;;;;23.13;15.05;;;16.80;99.90;;;;;;4993633;28;20507;-78
2023/05/09 08:03:03;;;;;;;20.30;13.38;;;16.90;99.90;;;;;;4992698;28;20360;-76
2023/05/09 08:05:29;;;;;;;20.48;14.02;;;16.90;99.90;;;;;;4990392;28;20062;-76
2023/05/09 08:07:54;;;;;;;20.48;14.35;;;16.90;99.90;;;;;;4990008;28;20035;-76
2023/05/09 08:10:29;;;;;;;19.08;13.25;;;16.80;99.90;;;;;;4989735;28;20029;-75
2023/05/09 08:12:55;;;;;;;17.45;12.95;;;16.90;99.90;;;;;;4993960;28;20513;-76
2023/05/09 08:15:22;;;;;;;19.60;12.95;;;16.90;99.90;;;;;;4989532;28;20109;-76
2023/05/09 08:17:47;;;;;;;19.92;12.45;;;17.00;99.90;;;;;;4991453;28;20030;-77
2023/05/09 08:20:13;;;;;;;16.08;12.05;;;17.00;99.90;;;;;;4992610;28;20022;-76
2023/05/09 08:22:39;;;;;;;17.27;11.90;;;17.10;99.90;;;;;;4992660;28;20037;-77
2023/05/09 08:25:06;;;;;;;30.05;9.93;;;17.20;99.90;;;;;;4992085;28;20573;-78
2023/05/09 08:27:32;;;;;;;16.60;10.77;;;17.20;99.90;;;;;;4989894;28;20500;-75
2023/05/09 08:29:58;;;;;;;15.70;10.98;;;17.30;99.90;;;;;;5001694;28;20065;-76
2023/05/09 08:32:26;;;;;;;17.25;11.48;;;17.30;99.90;;;;;;4991418;28;20062;-75
2023/05/09 08:34:52;;;;;;;17.23;11.10;;;17.30;99.90;;;;;;4990525;28;20027;-73
2023/05/09 08:37:17;;;;;;;15.07;10.52;;;17.40;99.90;;;;;;4992525;28;20101;-76
2023/05/09 08:39:43;;;;;;;17.55;11.75;;;17.40;99.90;;;;;;4995019;28;20026;-75
2023/05/09 08:42:17;;;;;;;16.67;11.07;;;17.50;99.90;;;;;;4993351;28;20117;-75
2023/05/09 08:44:43;;;;;;;15.32;10.32;;;17.50;99.90;;;;;;4991423;28;20041;-76
2023/05/09 08:47:10;;;;;;;13.55;9.88;;;17.70;99.90;;;;;;4995281;28;20026;-76
2023/05/09 08:49:35;;;;;;;15.00;9.60;;;17.80;99.90;;;;;;4995221;28;20310;-78
2023/05/09 08:52:01;;;;;;;14.90;9.45;;;17.90;99.90;;;;;;4998729;28;20030;-78
2023/05/09 08:54:28;;;;;;;12.75;9.20;;;17.90;99.90;;;;;;4995407;28;20103;-77
2023/05/09 08:56:54;;;;;;;13.93;9.38;;;18.00;99.90;;;;;;4997333;28;20026;-78
2023/05/09 08:59:20;;;;;;;13.23;8.73;;;17.90;99.90;;;;;;5005966;28;20133;-78
2023/05/09 09:01:46;;;;;;;12.65;8.75;;;17.90;99.90;;;;;;4995740;28;20085;-77
2023/05/09 09:04:15;;;;;;;11.32;7.78;;;17.90;99.90;;;;;;4995545;28;20065;-77
2023/05/09 09:06:41;;;;;;;14.40;9.48;;;17.90;99.90;;;;;;4994028;28;20087;-77
2023/05/09 09:09:08;;;;;;;13.73;8.18;;;17.90;99.90;;;;;;4996372;28;20026;-77
2023/05/09 09:11:34;;;;;;;11.65;8.07;;;17.90;99.90;;;;;;4993392;28;20496;-76
2023/05/09 09:14:05;;;;;;;13.40;7.50;;;18.00;99.90;;;;;;4995435;28;20120;-77
2023/05/09 09:16:31;;;;;;;9.93;6.55;;;18.10;99.90;;;;;;4995624;28;20097;-77
2023/05/09 09:18:59;;;;;;;8.90;6.88;;;18.10;99.90;;;;;;4997122;28;20022;-77
2023/05/09 09:21:31;;;;;;;10.02;7.45;;;18.20;99.90;;;;;;4996203;28;20038;-77
2023/05/09 09:23:59;;;;;;;12.00;7.75;;;18.20;99.90;;;;;;4997304;28;20030;-78
2023/05/09 09:26:30;;;;;;;10.95;7.50;;;18.30;99.90;;;;;;4993570;28;20026;-77
2023/05/09 09:28:56;;;;;;;11.35;7.97;;;18.30;99.90;;;;;;4992513;28;20366;-78
2023/05/09 09:31:27;;;;;;;11.43;6.78;;;18.30;99.90;;;;;;4999368;28;20085;-77
2023/05/09 09:34:00;;;;;;;11.02;7.30;;;18.30;99.90;;;;;;5004767;28;20076;-77
2023/05/09 09:36:31;;;;;;;12.70;9.07;;;18.40;99.90;;;;;;4998994;28;20018;-77
2023/05/09 09:39:03;;;;;;;15.77;7.55;;;18.40;99.90;;;;;;4995862;28;20040;-77
2023/05/09 09:41:47;;;;;;;9.18;6.55;;;18.50;99.90;;;;;;4996024;28;20130;-77
2023/05/09 09:44:14;;;;;;;;;;;18.50;99.90;;;;;;4995973;28;20105;-76
2023/05/09 09:46:59;;;;;;;9.05;6.43;;;18.40;99.90;;;;;;4995829;28;19921;-76
2023/05/09 09:49:26;;;;;;;10.93;7.05;;;18.40;99.90;;;;;;4986533;28;20041;-77
2023/05/09 09:51:53;;;;;;;9.18;6.53;;;18.50;99.90;;;;;;4996571;28;20034;-76
2023/05/09 09:54:19;;;;;;;12.80;8.15;;;18.50;99.90;;;;;;4996685;28;20485;-77
2023/05/09 09:56:46;;;;;;;11.35;7.07;;;18.50;99.90;;;;;;4998343;28;20029;-78
2023/05/09 09:59:17;;;;;;;9.70;6.93;;;18.60;99.90;;;;;;4996678;28;20026;-78
2023/05/09 10:02:11;;;;;;;15.05;7.03;;;18.60;99.90;;;;;;5008667;28;20045;-77
2023/05/09 10:04:39;;;;;;;15.70;7.72;;;18.60;99.90;;;;;;4993400;28;20042;-76
2023/05/09 10:07:09;;;;;;;11.50;6.65;;;18.70;99.90;;;;;;4986428;28;20033;-77
2023/05/09 10:09:36;;;;;;;8.73;5.78;;;18.70;99.90;;;;;;4988803;28;20127;-77
2023/05/09 10:12:07;;;;;;;8.23;6.35;;;18.80;99.90;;;;;;4988568;28;20026;-76
2023/05/09 10:14:34;;;;;;;10.63;5.70;;;19.00;99.90;;;;;;4989917;28;20027;-76
2023/05/09 10:17:03;;;;;;;11.15;5.55;;;19.10;99.90;;;;;;4995827;28;20473;-77
2023/05/09 10:19:29;;;;;;;7.50;5.30;;;19.10;99.90;;;;;;5009920;28;20027;-78
2023/05/09 10:22:03;;;;;;;8.80;5.18;;;19.10;99.90;;;;;;5001871;28;20030;-76
2023/05/09 10:25:01;;;;;;;5.90;4.55;;;19.20;99.90;;;;;;5006242;28;20513;-77
2023/05/09 10:27:31;;;;;;;8.50;4.78;;;19.30;99.90;;;;;;4996890;28;20066;-77
2023/05/09 10:30:07;;;;;;;7.82;4.25;;;19.30;99.90;;;;;;5002797;28;20038;-77
2023/05/09 10:32:54;;;;;;;5.45;4.38;;;19.40;99.90;;;;;;4993407;28;20057;-76
2023/05/09 10:35:26;;;;;;;5.03;4.15;;;19.40;99.90;;;;;;4993689;28;20018;-76
2023/05/09 10:37:58;;;;;;;6.70;4.32;;;19.50;99.90;;;;;;5013980;28;20026;-76
2023/05/09 10:40:24;;;;;;;8.98;4.70;;;19.50;99.90;;;;;;5015595;28;20033;-73
2023/05/09 10:42:50;;;;;;;4.88;3.92;;;19.60;99.90;;;;;;4989935;28;20034;-76
2023/05/09 10:45:16;;;;;;;8.30;4.20;;;19.70;99.90;;;;;;4993101;28;20053;-76
2023/05/09 10:47:43;;;;;;;5.70;4.38;;;19.70;99.90;;;;;;4990714;28;20057;-76
2023/05/09 10:50:12;;;;;;;4.47;3.53;;;19.80;99.90;;;;;;4992515;28;20045;-77
2023/05/09 10:53:02;;;;;;;5.72;3.58;;;19.90;99.90;;;;;;4992526;28;20464;-76
2023/05/09 10:55:54;;;;;;;4.95;3.75;;;20.00;99.90;;;;;;4996343;28;20465;-77
2023/05/09 10:58:28;;;;;;;6.03;3.95;;;20.00;99.90;;;;;;4993870;28;20023;-77
2023/05/09 11:00:55;;;;;;;4.43;3.40;;;20.10;99.90;;;;;;4987583;28;20041;-77
2023/05/09 11:03:23;;;;;;;5.25;3.70;;;20.10;99.90;;;;;;4991355;28;20125;-77
2023/05/09 11:05:51;;;;;;;6.38;3.67;;;20.20;99.90;;;;;;4993616;28;20347;-77
2023/05/09 11:08:30;;;;;;;5.10;3.28;;;20.20;99.90;;;;;;4992343;28;20127;-78
2023/05/09 11:10:59;;;;;;;4.32;2.92;;;20.20;99.90;;;;;;4990148;28;20076;-77
2023/05/09 11:13:29;;;;;;;4.70;3.33;;;20.30;99.90;;;;;;4986450;28;20034;-77
2023/05/09 11:16:01;;;;;;;4.72;2.63;;;20.30;99.90;;;;;;5004912;28;20053;-76
2023/05/09 11:18:30;;;;;;;4.65;2.60;;;20.30;99.90;;;;;;4987341;28;20072;-76
2023/05/09 11:20:55;;;;;;;4.22;2.60;;;20.30;99.90;;;;;;4997794;28;20602;-76
2023/05/09 11:23:25;;;;;;;3.15;2.42;;;20.40;99.90;;;;;;4990675;28;20109;-76
2023/05/09 11:25:51;;;;;;;4.93;2.92;;;20.50;99.90;;;;;;4991940;28;20026;-76
2023/05/09 11:28:27;;;;;;;4.60;2.45;;;20.50;99.90;;;;;;4988645;28;20035;-77
2023/05/09 11:30:53;;;;;;;4.80;2.53;;;20.60;99.90;;;;;;5002793;28;20035;-78
2023/05/09 11:33:23;;;;;;;4.25;2.63;;;20.50;99.90;;;;;;4991374;28;20026;-78
2023/05/09 11:36:24;;;;;;;2.88;2.15;;;20.60;99.90;;;;;;4992533;28;20022;-77
2023/05/09 11:39:00;;;;;;;2.45;2.03;;;20.70;99.90;;;;;;5010810;28;20098;-79
2023/05/09 11:41:26;;;;;;;6.10;3.03;;;20.80;99.90;;;;;;4987129;28;20157;-78
2023/05/09 11:43:54;;;;;;;5.45;2.75;;;20.80;99.90;;;;;;4998298;28;20077;-78
2023/05/09 11:46:19;;;;;;;3.67;2.30;;;20.80;99.90;;;;;;4989990;28;20034;-76
2023/05/09 11:48:47;;;;;;;2.47;2.00;;;20.90;99.90;;;;;;4991603;28;20050;-75
2023/05/09 11:51:17;;;;;;;3.47;2.08;;;21.00;99.90;;;;;;4988490;28;20034;-75
2023/05/09 11:53:45;;;;;;;2.95;2.03;;;21.00;99.90;;;;;;4989041;28;20439;-77
2023/05/09 11:56:12;;;;;;;4.63;2.60;;;21.10;99.90;;;;;;4991366;28;20026;-77
2023/05/09 11:58:38;;;;;;;3.75;2.47;;;21.10;99.90;;;;;;4993035;28;20030;-78
2023/05/09 12:01:05;;;;;;;3.05;2.10;;;21.10;99.90;;;;;;4994833;28;20041;-76
2023/05/09 12:03:32;;;;;;;2.58;2.03;;;21.20;99.90;;;;;;4995108;28;20080;-78
2023/05/09 12:05:58;;;;;;;9.18;2.63;;;21.30;99.90;;;;;;5015760;28;20030;-78
2023/05/09 12:08:24;;;;;;;4.15;2.17;;;21.30;99.90;;;;;;4997780;28;20057;-79
2023/05/09 12:10:50;;;;;;;4.68;2.03;;;21.40;99.90;;;;;;4997275;28;20027;-78
2023/05/09 12:13:18;;;;;;;2.97;2.17;;;21.40;99.90;;;;;;4996414;28;20050;-77
2023/05/09 12:15:44;;;;;;;4.13;2.72;;;21.40;99.90;;;;;;4993345;28;20086;-79
2023/05/09 12:18:09;;;;;;;3.55;1.77;;;21.50;99.90;;;;;;4996262;28;20456;-77
2023/05/09 12:20:49;;;;;;;2.30;1.77;;;21.50;99.90;;;;;;4995035;28;20037;-77
2023/05/09 12:23:17;;;;;;;3.90;2.15;;;21.50;99.70;;;;;;4997370;28;20033;-78
2023/05/09 12:25:53;;;;;;;2.75;1.67;;;21.50;99.90;;;;;;4997296;28;20037;-78
2023/05/09 12:28:21;;;;;;;3.35;1.83;;;21.60;99.60;;;;;;4993972;28;20034;-77
2023/05/09 12:30:47;;;;;;;2.97;2.15;;;21.60;99.50;;;;;;4993192;28;20034;-78
2023/05/09 12:33:14;;;;;;;4.45;1.90;;;21.60;99.30;;;;;;4990781;28;20030;-79
2023/05/09 12:35:47;;;;;;;3.97;1.73;;;21.60;99.30;;;;;;4993385;28;20049;-79
2023/05/09 12:38:19;;;;;;;2.28;1.60;;;21.70;98.90;;;;;;4992825;28;20041;-77
2023/05/09 12:40:47;;;;;;;2.40;1.77;;;21.60;98.50;;;;;;4993313;28;20469;-78